createdAt,value
2024-02-22T00:01:44.465Z,80.30
2024-02-22T00:04:11.714Z,80.40
2024-02-22T00:06:39.700Z,80.80
2024-02-22T00:09:06.597Z,80.40
2024-02-22T00:11:33.636Z,80.90
2024-02-22T00:14:00.719Z,80.70
2024-02-22T00:16:27.964Z,80.70
2024-02-22T00:18:54.860Z,80.80
2024-02-22T00:21:21.781Z,80.70
2024-02-22T00:23:49.321Z,80.50
2024-02-22T00:26:16.398Z,80.70
2024-02-22T00:28:43.694Z,81.10
2024-02-22T00:31:10.859Z,81.10
2024-02-22T00:33:37.806Z,81.20
2024-02-22T00:36:05.277Z,81.00
2024-02-22T00:38:32.863Z,80.60
2024-02-22T00:40:59.778Z,80.50
2024-02-22T00:43:26.921Z,80.50
2024-02-22T00:45:54.178Z,81.00
2024-02-22T00:48:21.100Z,81.00
2024-02-22T00:50:48.164Z,80.80
2024-02-22T00:53:16.634Z,80.70
2024-02-22T00:55:43.567Z,81.00
2024-02-22T00:58:11.317Z,81.30
2024-02-22T01:00:38.300Z,81.20
2024-02-22T01:03:06.293Z,80.90
2024-02-22T01:05:33.672Z,81.10
2024-02-22T01:08:01.074Z,80.90
2024-02-22T01:10:28.048Z,80.90
2024-02-22T01:12:55.034Z,81.00
2024-02-22T01:15:21.914Z,81.10
2024-02-22T01:17:48.840Z,80.70
2024-02-22T01:20:16.037Z,80.60
2024-02-22T01:22:42.981Z,80.90
2024-02-22T01:25:11.823Z,81.10
2024-02-22T01:27:38.903Z,80.60
2024-02-22T01:30:07.178Z,80.70
2024-02-22T01:32:34.397Z,80.90
2024-02-22T01:35:01.524Z,81.10
2024-02-22T01:37:28.618Z,81.10
2024-02-22T01:39:55.559Z,80.80
2024-02-22T01:42:22.895Z,80.90
2024-02-22T01:44:49.800Z,81.20
2024-02-22T01:47:18.354Z,81.10
2024-02-22T01:49:45.563Z,81.00
2024-02-22T01:52:12.622Z,81.30
2024-02-22T01:54:39.663Z,81.20
2024-02-22T01:57:06.818Z,81.30
2024-02-22T01:59:34.485Z,81.10
2024-02-22T02:02:01.524Z,80.60
2024-02-22T02:04:29.393Z,81.00
2024-02-22T02:06:56.368Z,81.00
2024-02-22T02:09:23.305Z,81.10
2024-02-22T02:11:50.202Z,81.20
2024-02-22T02:14:17.156Z,81.10
2024-02-22T02:16:44.165Z,81.10
2024-02-22T02:19:16.296Z,80.90
2024-02-22T02:21:57.770Z,81.00
2024-02-22T02:24:42.268Z,80.80
2024-02-22T02:27:09.216Z,80.60
2024-02-22T02:29:36.067Z,80.70
2024-02-22T02:32:03.150Z,81.00
2024-02-22T02:34:30.333Z,81.00
2024-02-22T02:36:57.700Z,80.70
2024-02-22T02:39:24.537Z,81.20
2024-02-22T02:41:52.484Z,81.00
2024-02-22T02:44:19.802Z,80.90
2024-02-22T02:46:46.732Z,80.70
2024-02-22T02:49:13.654Z,80.90
2024-02-22T02:51:40.547Z,81.20
2024-02-22T02:54:07.491Z,81.20
2024-02-22T02:56:34.365Z,81.50
2024-02-22T02:59:02.422Z,81.10
2024-02-22T03:01:29.488Z,80.70
2024-02-22T03:03:56.445Z,81.10
2024-02-22T03:06:23.426Z,80.90
2024-02-22T03:08:50.279Z,80.60
2024-02-22T03:11:17.198Z,80.70
2024-02-22T03:13:44.163Z,81.00
2024-02-22T03:16:12.644Z,81.10
2024-02-22T03:18:39.592Z,80.90
2024-02-22T03:21:10.064Z,80.20
2024-02-22T03:23:36.881Z,80.70
2024-02-22T03:26:04.394Z,80.70
2024-02-22T03:28:31.348Z,81.10
2024-02-22T03:31:00.350Z,80.80
2024-02-22T03:33:30.370Z,80.70
2024-02-22T03:35:58.956Z,80.90
2024-02-22T03:38:25.945Z,81.30
2024-02-22T03:40:53.362Z,80.70
2024-02-22T03:43:21.134Z,80.40
2024-02-22T03:45:48.038Z,80.20
2024-02-22T03:48:14.961Z,80.20
2024-02-22T03:50:44.434Z,80.30
2024-02-22T03:53:11.793Z,80.60
2024-02-22T03:55:38.871Z,80.70
2024-02-22T03:58:07.541Z,80.60
2024-02-22T04:00:37.650Z,80.60
2024-02-22T04:03:04.885Z,80.50
2024-02-22T04:05:32.204Z,80.50
2024-02-22T04:07:59.229Z,80.70
2024-02-22T04:10:26.095Z,80.40
2024-02-22T04:12:52.956Z,80.40
2024-02-22T04:15:19.808Z,80.10
2024-02-22T04:17:46.810Z,80.10
2024-02-22T04:20:14.148Z,80.20
2024-02-22T04:22:49.446Z,80.30
2024-02-22T04:25:16.918Z,80.50
2024-02-22T04:27:43.838Z,80.30
2024-02-22T04:30:13.695Z,80.10
2024-02-22T04:32:40.846Z,80.00
2024-02-22T04:35:08.444Z,79.80
2024-02-22T04:37:35.364Z,79.90
2024-02-22T04:40:02.270Z,79.80
2024-02-22T04:42:29.079Z,79.50
2024-02-22T04:44:56.153Z,79.50
2024-02-22T04:47:23.042Z,79.60
2024-02-22T04:49:51.821Z,79.60
2024-02-22T04:52:18.715Z,79.60
2024-02-22T04:54:45.608Z,79.70
2024-02-22T04:57:12.673Z,79.40
2024-02-22T04:59:39.670Z,79.70
2024-02-22T05:02:06.781Z,79.80
2024-02-22T05:04:33.741Z,79.80
2024-02-22T05:07:00.568Z,79.70
2024-02-22T05:09:27.413Z,79.40
2024-02-22T05:11:54.345Z,79.20
2024-02-22T05:14:21.222Z,79.10
2024-02-22T05:16:48.093Z,79.20
2024-02-22T05:19:15.102Z,79.20
2024-02-22T05:21:41.995Z,79.50
2024-02-22T05:24:12.038Z,79.80
2024-02-22T05:26:38.988Z,79.60
2024-02-22T05:29:06.370Z,79.20
2024-02-22T05:31:33.321Z,79.00
2024-02-22T05:34:00.340Z,79.10
2024-02-22T05:36:27.640Z,79.20
2024-02-22T05:38:54.420Z,79.10
2024-02-22T05:41:21.385Z,79.10
2024-02-22T05:43:48.405Z,79.30
2024-02-22T05:46:15.224Z,79.20
2024-02-22T05:48:42.302Z,79.10
2024-02-22T05:51:09.674Z,79.00
2024-02-22T05:53:36.628Z,78.70
2024-02-22T05:56:05.009Z,78.60
2024-02-22T05:58:32.099Z,78.30
2024-02-22T06:00:59.057Z,78.30
2024-02-22T06:03:25.932Z,78.10
2024-02-22T06:05:52.801Z,78.20
2024-02-22T06:08:20.202Z,78.00
2024-02-22T06:10:47.200Z,78.00
2024-02-22T06:13:14.777Z,77.80
2024-02-22T06:15:41.594Z,78.00
2024-02-22T06:18:08.452Z,77.90
2024-02-22T06:20:35.301Z,77.80
2024-02-22T06:23:04.674Z,77.70
2024-02-22T06:25:31.773Z,77.50
2024-02-22T06:27:58.819Z,77.60
2024-02-22T06:30:25.754Z,77.60
2024-02-22T06:32:52.645Z,77.80
2024-02-22T06:35:19.709Z,77.80
2024-02-22T06:37:46.699Z,77.70
2024-02-22T06:40:14.845Z,77.60
2024-02-22T06:42:42.353Z,77.50
2024-02-22T06:45:10.487Z,77.60
2024-02-22T06:47:37.568Z,77.40
2024-02-22T06:50:07.016Z,77.30
2024-02-22T06:52:36.910Z,77.20
2024-02-22T06:55:04.228Z,76.80
2024-02-22T06:57:31.066Z,77.10
2024-02-22T06:59:57.980Z,77.70
2024-02-22T07:02:24.951Z,77.70
2024-02-22T07:04:51.943Z,77.70
2024-02-22T07:07:18.921Z,77.40
2024-02-22T07:09:45.909Z,77.00
2024-02-22T07:12:12.833Z,76.90
2024-02-22T07:14:40.043Z,76.50
2024-02-22T07:17:06.929Z,76.10
2024-02-22T07:19:33.955Z,75.80
2024-02-22T07:22:01.073Z,75.90
2024-02-22T07:24:28.516Z,75.80
2024-02-22T07:26:55.447Z,75.40
2024-02-22T07:29:22.315Z,74.60
2024-02-22T07:31:49.196Z,74.40
2024-02-22T07:34:16.161Z,74.40
2024-02-22T07:36:42.996Z,74.50
2024-02-22T07:39:10.712Z,74.90
2024-02-22T07:41:37.686Z,75.20
2024-02-22T07:44:07.727Z,75.30
2024-02-22T07:46:36.659Z,75.40
2024-02-22T07:49:04.729Z,75.30
2024-02-22T07:51:33.622Z,75.30
2024-02-22T07:54:02.751Z,75.10
2024-02-22T07:56:32.240Z,75.00
2024-02-22T07:59:00.345Z,74.90
2024-02-22T08:01:27.279Z,75.40
2024-02-22T08:03:54.462Z,75.30
2024-02-22T08:06:21.493Z,75.30
2024-02-22T08:08:48.391Z,74.90
2024-02-22T08:11:17.142Z,74.80
2024-02-22T08:13:46.019Z,74.80
2024-02-22T08:16:12.943Z,75.20
2024-02-22T08:18:42.112Z,75.10
2024-02-22T08:21:09.859Z,75.20
2024-02-22T08:23:36.820Z,75.00
2024-02-22T08:26:03.946Z,74.60
2024-02-22T08:28:31.251Z,74.50
2024-02-22T08:30:58.060Z,74.00
2024-02-22T08:33:25.894Z,73.70
2024-02-22T08:35:55.818Z,73.50
2024-02-22T08:38:22.912Z,72.80
2024-02-22T08:40:49.877Z,73.40
2024-02-22T08:43:17.526Z,73.10
2024-02-22T08:45:45.758Z,73.10
2024-02-22T08:48:12.802Z,72.00
2024-02-22T08:50:39.651Z,72.00
2024-02-22T08:53:06.776Z,72.50
2024-02-22T08:55:34.021Z,72.40
2024-02-22T08:58:02.143Z,72.50
2024-02-22T09:00:30.112Z,72.70
2024-02-22T09:02:57.130Z,72.70
2024-02-22T09:05:24.156Z,72.90
2024-02-22T09:07:51.955Z,72.60
2024-02-22T09:10:19.483Z,72.20
2024-02-22T09:12:46.677Z,73.00
2024-02-22T09:15:13.782Z,73.20
2024-02-22T09:17:40.709Z,72.70
2024-02-22T09:20:08.281Z,72.40
2024-02-22T09:22:35.404Z,72.30
2024-02-22T09:25:07.636Z,72.10
2024-02-22T09:27:35.317Z,71.80
2024-02-22T09:30:05.123Z,71.40
2024-02-22T09:32:32.594Z,71.80
2024-02-22T09:34:59.656Z,71.40
2024-02-22T09:37:28.367Z,71.20
2024-02-22T09:39:55.276Z,70.30
2024-02-22T09:42:28.414Z,71.00
2024-02-22T09:44:57.111Z,70.40
2024-02-22T09:47:24.747Z,70.50
2024-02-22T09:49:52.024Z,71.40
2024-02-22T09:52:21.168Z,71.70
2024-02-22T09:54:49.456Z,70.50
2024-02-22T09:57:16.467Z,69.90
2024-02-22T09:59:50.517Z,68.80
2024-02-22T10:02:17.660Z,69.20
2024-02-22T10:04:58.156Z,69.70
2024-02-22T10:07:26.711Z,69.90
2024-02-22T10:09:54.881Z,70.00
2024-02-22T10:12:31.055Z,69.80
2024-02-22T10:14:58.663Z,70.30
2024-02-22T10:17:29.777Z,69.70
2024-02-22T10:19:57.602Z,69.20
2024-02-22T10:22:25.934Z,69.90
2024-02-22T10:24:53.822Z,70.20
2024-02-22T10:27:23.133Z,70.40
2024-02-22T10:29:50.623Z,70.80
2024-02-22T10:32:21.034Z,70.00
2024-02-22T10:34:51.817Z,69.70
2024-02-22T10:37:19.920Z,70.30
2024-02-22T10:39:47.212Z,70.50
2024-02-22T10:42:15.322Z,70.70
2024-02-22T10:44:46.280Z,70.70
2024-02-22T10:47:13.313Z,71.60
2024-02-22T10:49:40.507Z,71.30
2024-02-22T10:52:11.027Z,71.20
2024-02-22T10:54:41.806Z,70.20
2024-02-22T10:57:10.246Z,70.80
2024-02-22T10:59:38.395Z,71.10
2024-02-22T11:02:06.020Z,71.20
2024-02-22T11:04:33.377Z,71.50
2024-02-22T11:07:09.391Z,72.10
2024-02-22T11:09:41.801Z,72.30
2024-02-22T11:12:09.239Z,72.50
2024-02-22T11:14:38.575Z,72.50
2024-02-22T11:17:18.609Z,72.70
2024-02-22T11:19:45.821Z,72.70
2024-02-22T11:22:20.554Z,72.50
2024-02-22T11:24:50.882Z,72.70
2024-02-22T11:27:19.780Z,73.00
2024-02-22T11:29:46.690Z,73.00
2024-02-22T11:32:21.180Z,73.00
2024-02-22T11:34:54.131Z,73.30
2024-02-22T11:37:22.449Z,72.80
2024-02-22T11:39:59.823Z,72.70
2024-02-22T11:42:27.781Z,73.10
2024-02-22T11:44:57.015Z,72.80
2024-02-22T11:47:24.445Z,72.80
2024-02-22T11:49:51.383Z,72.80
2024-02-22T11:52:18.438Z,72.40
2024-02-22T11:54:52.115Z,72.60
2024-02-22T11:57:19.202Z,72.80
2024-02-22T11:59:46.130Z,72.60
2024-02-22T12:02:14.281Z,72.50
2024-02-22T12:04:42.629Z,72.90
2024-02-22T12:07:10.351Z,72.90
2024-02-22T12:09:37.489Z,73.20
2024-02-22T12:12:05.081Z,73.40
2024-02-22T12:14:31.956Z,73.40
2024-02-22T12:17:00.065Z,73.40
2024-02-22T12:19:30.914Z,73.10
2024-02-22T12:22:01.902Z,72.90
2024-02-22T12:24:30.050Z,73.70
2024-02-22T12:26:58.283Z,73.30
2024-02-22T12:29:27.721Z,73.60
2024-02-22T12:32:14.251Z,73.50
2024-02-22T12:34:41.261Z,73.60
2024-02-22T12:37:08.252Z,73.30
2024-02-22T12:39:35.372Z,73.50
2024-02-22T12:42:02.334Z,73.00
2024-02-22T12:44:29.633Z,73.40
2024-02-22T12:46:59.511Z,73.50
2024-02-22T12:49:28.723Z,73.10
2024-02-22T12:51:55.949Z,73.60
2024-02-22T12:54:24.097Z,73.90
2024-02-22T12:56:50.848Z,74.70
2024-02-22T12:59:18.375Z,74.70
2024-02-22T13:01:47.626Z,74.10
2024-02-22T13:04:14.578Z,74.30
2024-02-22T13:06:41.474Z,74.60
2024-02-22T13:09:08.758Z,75.50
2024-02-22T13:11:36.265Z,75.30
2024-02-22T13:14:05.237Z,74.80
2024-02-22T13:16:32.135Z,75.10
2024-02-22T13:18:59.160Z,75.10
2024-02-22T13:21:26.423Z,75.10
2024-02-22T13:23:53.575Z,75.10
2024-02-22T13:26:20.553Z,75.00
2024-02-22T13:28:48.563Z,74.80
2024-02-22T13:31:15.824Z,74.70
2024-02-22T13:33:46.818Z,74.90
2024-02-22T13:36:14.184Z,74.70
2024-02-22T13:38:42.857Z,75.30
2024-02-22T13:41:13.057Z,75.50
2024-02-22T13:43:41.272Z,75.30
2024-02-22T13:46:08.690Z,75.80
2024-02-22T13:48:37.323Z,75.70
2024-02-22T13:51:04.771Z,75.70
2024-02-22T13:53:31.694Z,75.30
2024-02-22T13:55:58.704Z,75.60
2024-02-22T13:58:25.797Z,75.50
2024-02-22T14:00:52.676Z,76.00
2024-02-22T14:03:19.578Z,76.60
2024-02-22T14:05:51.549Z,76.60
2024-02-22T14:08:20.537Z,78.00
2024-02-22T14:10:47.582Z,78.40
2024-02-22T14:13:14.601Z,78.80
2024-02-22T14:15:41.980Z,79.00
2024-02-22T14:18:09.831Z,79.10
2024-02-22T14:20:36.904Z,78.80
2024-02-22T14:23:03.832Z,79.30
2024-02-22T14:25:30.834Z,79.20
2024-02-22T14:27:57.698Z,79.50
2024-02-22T14:30:24.824Z,79.90
2024-02-22T14:32:51.726Z,79.70
2024-02-22T14:35:19.757Z,80.30
2024-02-22T14:37:46.839Z,80.50
2024-02-22T14:40:13.829Z,80.90
2024-02-22T14:42:41.059Z,81.00
2024-02-22T14:45:08.160Z,80.80
2024-02-22T14:47:36.693Z,81.20
2024-02-22T14:50:11.202Z,81.80
2024-02-22T14:52:38.285Z,82.00
2024-02-22T14:55:05.605Z,81.40
2024-02-22T14:57:33.517Z,81.50
2024-02-22T15:00:00.890Z,82.00
2024-02-22T15:06:18.115Z,82.00
2024-02-22T15:08:47.020Z,82.10
2024-02-22T15:11:14.031Z,81.90
2024-02-22T15:13:41.324Z,82.10
2024-02-22T15:16:09.529Z,82.40
2024-02-22T15:18:40.216Z,81.90
2024-02-22T15:21:08.123Z,81.80
2024-02-22T15:23:38.270Z,82.10
2024-02-22T15:26:05.534Z,82.40
2024-02-22T15:28:32.452Z,82.70
2024-02-22T15:31:00.790Z,82.20
2024-02-22T15:33:28.172Z,82.40
2024-02-22T15:35:55.498Z,81.80
2024-02-22T15:38:22.692Z,82.60
2024-02-22T15:40:49.728Z,82.80
2024-02-22T15:43:16.846Z,82.50
2024-02-22T15:45:44.042Z,82.20
2024-02-22T15:48:12.277Z,82.20
2024-02-22T15:50:39.212Z,82.00
2024-02-22T15:53:06.707Z,82.00
2024-02-22T15:55:34.127Z,81.60
2024-02-22T15:58:05.086Z,82.00
2024-02-22T16:00:31.978Z,82.00
2024-02-22T16:02:59.131Z,81.90
2024-02-22T16:05:26.065Z,81.60
2024-02-22T16:07:53.071Z,81.50
2024-02-22T16:10:20.289Z,81.50
2024-02-22T16:12:47.216Z,81.40
2024-02-22T16:15:14.266Z,81.60
2024-02-22T16:17:41.745Z,81.40
2024-02-22T16:20:11.586Z,81.40
2024-02-22T16:22:39.133Z,81.30
2024-02-22T16:25:07.603Z,81.10
2024-02-22T16:27:34.596Z,81.10
2024-02-22T16:30:01.475Z,81.20
2024-02-22T16:32:28.458Z,80.70
2024-02-22T16:34:55.357Z,81.60
2024-02-22T16:37:22.290Z,80.30
2024-02-22T16:39:49.393Z,80.60
2024-02-22T16:42:16.214Z,80.40
2024-02-22T16:44:43.297Z,80.10
2024-02-22T16:47:15.594Z,80.50
2024-02-22T16:49:43.720Z,80.00
2024-02-22T16:52:12.125Z,80.00
2024-02-22T16:54:42.254Z,80.80
2024-02-22T16:57:09.458Z,79.60
2024-02-22T16:59:36.310Z,80.10
2024-02-22T17:02:03.805Z,79.60
2024-02-22T17:04:30.704Z,79.60
2024-02-22T17:07:00.601Z,78.90
2024-02-22T17:09:28.408Z,78.30
2024-02-22T17:11:56.716Z,77.30
2024-02-22T17:14:24.086Z,77.30
2024-02-22T17:16:51.239Z,77.20
2024-02-22T17:19:18.929Z,76.60
2024-02-22T17:21:54.113Z,77.40
2024-02-22T17:24:22.227Z,75.90
2024-02-22T17:26:49.894Z,75.00
2024-02-22T17:29:17.447Z,74.50
2024-02-22T17:31:44.431Z,73.00
2024-02-22T17:34:11.608Z,73.90
2024-02-22T17:36:40.179Z,73.40
2024-02-22T17:39:07.184Z,72.50
2024-02-22T17:41:34.071Z,72.70
2024-02-22T17:44:03.089Z,72.80
2024-02-22T17:46:30.015Z,72.20
2024-02-22T17:48:56.928Z,72.70
2024-02-22T17:51:23.828Z,72.00
2024-02-22T17:53:50.830Z,71.30
2024-02-22T17:56:17.899Z,71.20
2024-02-22T17:58:51.404Z,72.60
2024-02-22T18:01:24.654Z,74.30
2024-02-22T18:03:51.537Z,75.90
2024-02-22T18:06:19.052Z,77.40
2024-02-22T18:08:46.083Z,78.50
2024-02-22T18:11:13.078Z,79.40
2024-02-22T18:13:40.466Z,79.20
2024-02-22T18:16:07.740Z,79.60
2024-02-22T18:18:36.345Z,79.70
2024-02-22T18:21:04.037Z,79.70
2024-02-22T18:23:30.989Z,79.70
2024-02-22T18:25:57.943Z,79.50
2024-02-22T18:28:25.033Z,80.30
2024-02-22T18:30:51.923Z,79.90
2024-02-22T18:33:18.972Z,79.70
2024-02-22T18:35:46.005Z,79.20
2024-02-22T18:38:14.858Z,78.90
2024-02-22T18:40:41.791Z,79.00
2024-02-22T18:43:09.975Z,79.40
2024-02-22T18:45:37.198Z,79.40
2024-02-22T18:48:07.310Z,79.00
2024-02-22T18:50:34.332Z,79.10
2024-02-22T18:53:02.100Z,78.90
2024-02-22T18:55:29.082Z,79.10
2024-02-22T18:57:55.907Z,78.80
2024-02-22T19:00:23.697Z,78.40
2024-02-22T19:02:51.789Z,78.50
2024-02-22T19:05:21.706Z,78.40
2024-02-22T19:07:50.303Z,78.30
2024-02-22T19:10:17.644Z,78.50
2024-02-22T19:12:44.645Z,78.80
2024-02-22T19:15:11.699Z,78.60
2024-02-22T19:17:39.615Z,78.10
2024-02-22T19:20:09.684Z,78.00
2024-02-22T19:22:37.511Z,77.90
2024-02-22T19:25:04.915Z,77.30
2024-02-22T19:27:33.609Z,77.40
2024-02-22T19:30:00.653Z,77.60
2024-02-22T19:32:27.617Z,77.30
2024-02-22T19:34:54.620Z,77.10
2024-02-22T19:37:21.550Z,75.30
2024-02-22T19:39:55.495Z,75.40
2024-02-22T19:42:22.779Z,75.70
2024-02-22T19:44:51.016Z,75.60
2024-02-22T19:47:17.934Z,75.80
2024-02-22T19:49:44.876Z,76.00
2024-02-22T19:52:11.932Z,75.80
2024-02-22T19:54:39.727Z,76.20
2024-02-22T19:57:06.623Z,76.20
2024-02-22T19:59:33.597Z,76.30
2024-02-22T20:02:00.590Z,76.10
2024-02-22T20:04:27.780Z,75.80
2024-02-22T20:06:54.838Z,75.50
2024-02-22T20:09:21.657Z,75.70
2024-02-22T20:11:48.578Z,76.10
2024-02-22T20:14:15.587Z,75.70
2024-02-22T20:16:43.307Z,75.40
2024-02-22T20:19:10.318Z,75.10
2024-02-22T20:21:37.521Z,75.20
2024-02-22T20:24:04.781Z,75.40
2024-02-22T20:26:32.493Z,75.30
2024-02-22T20:28:59.571Z,74.80
2024-02-22T20:31:27.775Z,74.80
2024-02-22T20:33:57.966Z,75.00
2024-02-22T20:36:27.759Z,74.90
2024-02-22T20:38:56.314Z,75.00
2024-02-22T20:41:28.461Z,74.40
2024-02-22T20:43:57.876Z,74.50
2024-02-22T20:46:27.895Z,74.50
2024-02-22T20:48:56.423Z,73.60
2024-02-22T20:51:29.669Z,73.80
2024-02-22T20:53:57.352Z,74.30
2024-02-22T20:56:24.682Z,74.10
2024-02-22T20:58:51.716Z,74.40
2024-02-22T21:01:19.129Z,74.20
2024-02-22T21:03:45.989Z,74.60
2024-02-22T21:06:20.338Z,75.00
2024-02-22T21:08:49.004Z,75.30
2024-02-22T21:11:17.231Z,75.30
2024-02-22T21:13:45.404Z,76.00
2024-02-22T21:16:12.742Z,75.90
2024-02-22T21:18:39.842Z,76.70
2024-02-22T21:21:07.580Z,76.70
2024-02-22T21:23:34.897Z,76.80
2024-02-22T21:26:02.734Z,77.50
2024-02-22T21:28:29.921Z,77.10
2024-02-22T21:30:57.391Z,77.20
2024-02-22T21:33:26.395Z,76.90
2024-02-22T21:35:54.754Z,77.00
2024-02-22T21:38:21.918Z,77.30
2024-02-22T21:40:49.111Z,77.60
2024-02-22T21:43:17.336Z,77.40
2024-02-22T21:45:44.802Z,77.20
2024-02-22T21:48:12.043Z,77.70
2024-02-22T21:50:39.581Z,77.70
2024-02-22T21:53:09.373Z,77.10
2024-02-22T21:55:36.457Z,77.50
2024-02-22T21:58:03.858Z,77.80
2024-02-22T22:00:31.022Z,77.50
2024-02-22T22:02:57.973Z,77.10
2024-02-22T22:05:25.270Z,77.20
2024-02-22T22:07:52.257Z,77.00
2024-02-22T22:10:19.127Z,76.90
2024-02-22T22:12:46.064Z,77.10
2024-02-22T22:15:12.998Z,77.40
2024-02-22T22:17:42.507Z,77.50
2024-02-22T22:20:10.049Z,77.50
2024-02-22T22:22:37.022Z,77.20
2024-02-22T22:25:04.128Z,76.90
2024-02-22T22:27:31.044Z,77.10
2024-02-22T22:29:57.941Z,76.90
2024-02-22T22:32:25.069Z,77.50
2024-02-22T22:34:52.164Z,77.40
2024-02-22T22:37:20.867Z,77.30
2024-02-22T22:39:48.059Z,76.90
2024-02-22T22:42:15.002Z,77.30
2024-02-22T22:44:42.481Z,77.20
2024-02-22T22:47:09.565Z,77.00
2024-02-22T22:49:36.512Z,76.70
2024-02-22T22:52:07.700Z,77.00
2024-02-22T22:54:34.854Z,77.50
2024-02-22T22:57:03.040Z,77.00
2024-02-22T22:59:30.202Z,77.10
2024-02-22T23:01:58.201Z,77.40
2024-02-22T23:04:26.140Z,77.40
2024-02-22T23:06:53.626Z,77.40
2024-02-22T23:09:25.102Z,77.30
2024-02-22T23:11:52.885Z,77.40
2024-02-22T23:14:20.663Z,77.60
2024-02-22T23:16:48.229Z,77.60
2024-02-22T23:19:15.572Z,78.00
2024-02-22T23:21:42.529Z,77.60
2024-02-22T23:24:10.174Z,77.70
2024-02-22T23:26:39.113Z,77.50
2024-02-22T23:29:08.052Z,77.80
2024-02-22T23:31:34.925Z,78.30
2024-02-22T23:34:01.892Z,78.80
2024-02-22T23:36:32.433Z,78.30
2024-02-22T23:38:59.459Z,78.20
2024-02-22T23:41:29.880Z,77.70
2024-02-22T23:44:01.277Z,77.70
2024-02-22T23:46:29.395Z,78.10
2024-02-22T23:48:57.275Z,78.00
2024-02-22T23:51:24.430Z,78.40
2024-02-22T23:53:51.408Z,78.00
2024-02-22T23:56:18.762Z,77.80
2024-02-22T23:58:45.760Z,77.90
